Time;durP1;ratioP1;P1;durP2;ratioP2;P2;SDS_P1;SDS_P2;PMS_P1;PMS_P2;Temp;Humidity;BMP_temperature;BMP_pressure;BME280_temperature;BME280_humidity;BME280_pressure;Samples;Min_cycle;Max_cycle;Signal;HPM_P1;HPM_P2
2024/01/30 00:01:52;;;;;;;;;44.25;33.25;;;;;11.13;77.53;102373.75;4994582;28;45454;-39
2024/01/30 00:04:18;;;;;;;;;48.00;37.25;;;;;11.21;77.84;102375.84;4994955;28;45402;-38
2024/01/30 00:06:44;;;;;;;;;43.75;35.75;;;;;11.17;77.34;102371.72;4994561;28;45376;-39
2024/01/30 00:09:10;;;;;;;;;42.50;36.00;;;;;11.16;77.46;102373.50;4994782;28;45464;-39
2024/01/30 00:11:39;;;;;;;;;45.25;36.50;;;;;11.18;77.44;102379.59;4994492;28;45218;-37
2024/01/30 00:14:05;;;;;;;;;39.50;35.75;;;;;11.18;77.48;102379.59;4994712;28;45350;-38
2024/01/30 00:16:31;;;;;;;;;41.00;36.25;;;;;11.19;77.55;102375.94;4994283;28;46359;-39
2024/01/30 00:18:56;;;;;;;;;33.75;31.50;;;;;11.19;77.73;102378.63;4994197;28;45434;-40
2024/01/30 00:21:22;;;;;;;;;31.75;31.75;;;;;11.21;77.27;102376.72;4994538;28;45331;-39
2024/01/30 00:23:47;;;;;;;;;41.75;34.25;;;;;11.18;77.45;102368.09;4994446;28;45582;-37
2024/01/30 00:26:14;;;;;;;;;37.67;31.00;;;;;11.18;77.75;102365.41;4994255;28;45788;-38
2024/01/30 00:28:40;;;;;;;;;41.25;32.75;;;;;11.22;77.88;102370.41;4994448;28;45460;-38
2024/01/30 00:31:06;;;;;;;;;37.50;31.25;;;;;11.21;77.95;102379.38;4993537;28;45185;-39
2024/01/30 00:33:32;;;;;;;;;42.67;33.00;;;;;11.25;77.57;102374.69;4993889;28;45272;-39
2024/01/30 00:35:57;;;;;;;;;35.75;32.25;;;;;11.26;77.13;102383.50;4994041;28;45426;-37
2024/01/30 00:38:22;;;;;;;;;42.33;33.67;;;;;11.30;77.51;102395.66;4994092;28;45987;-40
2024/01/30 00:40:48;;;;;;;;;37.75;32.75;;;;;11.32;77.10;102391.91;4994331;28;45216;-39
2024/01/30 00:43:13;;;;;;;;;36.33;33.67;;;;;11.36;77.21;102381.88;4994527;28;45451;-40
2024/01/30 00:45:39;;;;;;;;;34.00;30.00;;;;;11.36;77.34;102384.53;4994145;28;47101;-40
2024/01/30 00:48:04;;;;;;;;;38.25;33.25;;;;;11.37;77.07;102388.91;4993769;28;45316;-40
2024/01/30 00:50:30;;;;;;;;;38.67;31.67;;;;;11.28;76.88;102376.25;4994070;28;45407;-40
2024/01/30 00:52:55;;;;;;;;;37.75;33.00;;;;;11.36;77.42;102384.53;4994262;28;45400;-40
2024/01/30 00:55:20;;;;;;;;;43.00;32.33;;;;;11.32;77.46;102391.06;4993858;28;45406;-38
2024/01/30 00:57:47;;;;;;;;;32.33;29.00;;;;;11.33;76.85;102387.41;4993820;28;45349;-40
2024/01/30 01:00:13;;;;;;;;;36.00;29.67;;;;;11.32;77.22;102381.25;4994014;28;45456;-40
2024/01/30 01:02:39;;;;;;;;;40.50;31.50;;;;;11.30;77.72;102383.19;4993887;28;45496;-40
2024/01/30 01:05:05;;;;;;;;;40.33;32.00;;;;;11.28;77.29;102381.56;4993496;28;46281;-40
2024/01/30 01:07:30;;;;;;;;;37.33;29.67;;;;;11.30;77.59;102385.84;4993568;28;45262;-40
2024/01/30 01:09:56;;;;;;;;;42.25;31.75;;;;;11.30;77.33;102387.66;4993957;28;45350;-37
2024/01/30 01:12:21;;;;;;;;;36.33;28.67;;;;;11.29;77.92;102389.44;4993873;28;45261;-40
2024/01/30 01:14:47;;;;;;;;;28.00;26.00;;;;;11.28;77.44;102379.75;4993543;28;47252;-40
2024/01/30 01:17:12;;;;;;;;;23.33;18.67;;;;;11.34;77.92;102384.66;4993626;28;45438;-40
2024/01/30 01:19:37;;;;;;;;;29.33;24.33;;;;;11.34;77.52;102379.34;4993513;28;45771;-40
2024/01/30 01:22:03;;;;;;;;;33.33;27.67;;;;;11.31;77.71;102379.53;4993871;28;45222;-39
2024/01/30 01:24:32;;;;;;;;;33.00;29.00;;;;;11.31;77.27;102374.22;4993303;28;45478;-38
2024/01/30 01:27:00;;;;;;;;;31.00;29.00;;;;;11.29;77.82;102377.94;4993175;28;45668;-40
2024/01/30 01:29:28;;;;;;;;;34.33;29.33;;;;;11.30;77.91;102382.34;4993610;28;45269;-38
2024/01/30 01:31:57;;;;;;;;;36.00;27.00;;;;;11.28;77.73;102382.41;4993538;28;45300;-41
2024/01/30 01:34:23;;;;;;;;;33.33;27.33;;;;;11.28;78.21;102385.09;5008302;28;47002;-39
2024/01/30 01:36:49;;;;;;;;;35.33;26.00;;;;;11.26;78.50;102384.38;4993137;28;45405;-40
2024/01/30 01:39:15;;;;;;;;;31.00;28.00;;;;;11.27;77.89;102382.53;4993321;28;45290;-39
2024/01/30 01:41:41;;;;;;;;;34.67;27.33;;;;;11.26;78.56;102384.38;4993796;28;45374;-40
2024/01/30 01:44:07;;;;;;;;;35.67;28.33;;;;;11.24;78.59;102383.59;4995015;28;46478;-40
2024/01/30 01:46:34;;;;;;;;;39.33;30.00;;;;;11.20;78.50;102385.63;4996260;28;45411;-41
2024/01/30 01:49:02;;;;;;;;;23.33;22.33;;;;;11.24;78.78;102381.78;4996003;28;45373;-40
2024/01/30 01:51:29;;;;;;;;;30.33;26.33;;;;;11.24;78.76;102388.94;4996150;28;45386;-40
2024/01/30 01:53:56;;;;;;;;;36.67;27.33;;;;;11.25;78.59;102377.34;4996110;28;46184;-39
2024/01/30 01:56:23;;;;;;;;;32.33;27.00;;;;;11.22;78.61;102378.41;4996088;28;45292;-39
2024/01/30 01:58:49;;;;;;;;;22.00;21.67;;;;;11.25;78.39;102377.34;4995964;28;45515;-38
2024/01/30 02:01:18;;;;;;;;;28.33;22.33;;;;;11.27;78.98;102379.88;4996369;28;45440;-39
2024/01/30 02:03:45;;;;;;;;;32.67;23.33;;;;;11.21;79.02;102373.19;4995726;28;45479;-40
2024/01/30 02:06:10;;;;;;;;;17.33;15.67;;;;;11.04;78.84;102350.44;4995836;28;45406;-40
2024/01/30 02:08:37;;;;;;;;;27.33;23.33;;;;;11.26;78.44;102383.50;4996030;28;45312;-40
2024/01/30 02:11:03;;;;;;;;;25.00;23.67;;;;;11.17;79.05;102372.56;4996323;28;45382;-40
2024/01/30 02:13:28;;;;;;;;;24.00;21.67;;;;;11.17;79.07;102385.88;4995672;28;46513;-40
2024/01/30 02:15:54;;;;;;;;;23.00;20.00;;;;;11.17;78.95;102383.22;4995977;28;45236;-38
2024/01/30 02:18:21;;;;;;;;;28.67;24.67;;;;;11.16;79.31;102383.31;4995803;28;45328;-38
2024/01/30 02:20:47;;;;;;;;;28.33;23.67;;;;;11.11;79.59;102370.31;4996317;28;45358;-39
2024/01/30 02:23:15;;;;;;;;;31.33;24.33;;;;;11.08;79.24;102380.34;4995839;28;46066;-40
2024/01/30 02:25:44;;;;;;;;;6.67;1.00;;;;;11.05;79.74;102372.59;4995955;28;45167;-39
2024/01/30 02:28:11;;;;;;;;;28.33;23.67;;;;;11.08;80.24;102375.00;5011088;28;45675;-40
2024/01/30 02:30:36;;;;;;;;;23.67;21.33;;;;;11.07;80.25;102368.84;4995882;28;45428;-39
2024/01/30 02:33:01;;;;;;;;;23.33;17.67;;;;;11.05;80.00;102357.47;4995431;28;45540;-40
2024/01/30 02:35:27;;;;;;;;;25.67;23.00;;;;;11.11;80.21;102358.81;4995149;28;45410;-39
2024/01/30 02:37:52;;;;;;;;;25.67;20.33;;;;;11.10;80.40;102360.63;4995757;28;45265;-40
2024/01/30 02:40:17;;;;;;;;;24.33;19.00;;;;;11.09;80.36;102358.94;4995842;28;45458;-39
2024/01/30 02:42:44;;;;;;;;;23.00;18.67;;;;;11.04;80.36;102360.22;4995504;28;47525;-39
2024/01/30 02:45:10;;;;;;;;;21.33;18.33;;;;;11.08;80.78;102373.22;4995430;28;45385;-38
2024/01/30 02:47:36;;;;;;;;;23.67;19.33;;;;;11.04;80.59;102377.06;4995412;28;45364;-39
2024/01/30 02:50:01;;;;;;;;;23.00;19.00;;;;;11.03;81.30;102374.50;4995397;28;45329;-39
2024/01/30 02:52:26;;;;;;;;;24.67;19.33;;;;;11.00;81.20;102367.59;4995056;28;46091;-39
2024/01/30 02:54:52;;;;;;;;;24.00;20.33;;;;;11.00;81.37;102364.94;4994263;28;45424;-39
2024/01/30 02:57:17;;;;;;;;;21.33;18.00;;;;;10.97;80.22;102360.66;4995486;28;45314;-40
2024/01/30 02:59:42;;;;;;;;;25.00;19.00;;;;;10.97;81.83;102365.16;4995809;28;45378;-44
2024/01/30 03:02:08;;;;;;;;;20.67;19.33;;;;;10.97;80.97;102359.81;4995201;28;45287;-39
2024/01/30 03:04:33;;;;;;;;;23.67;21.00;;;;;10.96;81.45;102358.97;4995057;28;45383;-37
2024/01/30 03:06:58;;;;;;;;;19.67;16.00;;;;;10.96;82.17;102368.78;4995216;28;45417;-39
2024/01/30 03:09:24;;;;;;;;;24.67;20.00;;;;;10.93;81.87;102375.16;4977872;28;45484;-40
2024/01/30 03:11:49;;;;;;;;;17.67;17.00;;;;;10.90;82.49;102363.88;4995061;28;46050;-39
2024/01/30 03:14:14;;;;;;;;;21.33;16.33;;;;;10.92;82.32;102362.81;4995206;28;45442;-39
2024/01/30 03:16:40;;;;;;;;;25.67;16.33;;;;;10.91;82.22;102361.13;4993665;28;45349;-39
2024/01/30 03:19:07;;;;;;;;;16.67;14.67;;;;;10.89;82.65;102365.69;4995309;28;45451;-40
2024/01/30 03:21:33;;;;;;;;;19.33;17.00;;;;;10.90;82.68;102369.19;4995135;28;46259;-38
2024/01/30 03:23:59;;;;;;;;;20.00;17.00;;;;;10.89;82.77;102370.16;4994885;28;45495;-40
2024/01/30 03:26:24;;;;;;;;;25.33;15.33;;;;;10.81;83.14;102365.38;4995154;28;45333;-38
2024/01/30 03:28:50;;;;;;;;;21.33;18.00;;;;;10.83;83.36;102365.25;5010312;28;45583;-39
2024/01/30 03:31:15;;;;;;;;;19.67;17.67;;;;;10.83;83.27;102375.91;4994931;28;46429;-40
2024/01/30 03:33:41;;;;;;;;;21.67;14.33;;;;;10.83;83.35;102362.59;4994913;28;45472;-40
2024/01/30 03:36:07;;;;;;;;;3.33;2.00;;;;;10.84;83.75;102375.81;4994994;28;45347;-40
2024/01/30 03:38:32;;;;;;;;;24.33;17.67;;;;;10.84;83.46;102365.16;4995214;28;45423;-39
2024/01/30 03:40:59;;;;;;;;;18.67;17.00;;;;;10.86;83.34;102381.88;5009854;28;46016;-40
2024/01/30 03:43:24;;;;;;;;;17.00;16.00;;;;;10.87;83.54;102366.75;4994761;28;45465;-40
2024/01/30 03:45:49;;;;;;;;;17.67;13.33;;;;;10.89;83.78;102372.81;4994671;28;45664;-40
2024/01/30 03:48:15;;;;;;;;;22.00;18.00;;;;;10.91;83.70;102360.25;4995110;28;45448;-40
2024/01/30 03:50:40;;;;;;;;;20.00;17.33;;;;;10.90;83.18;102364.72;4993228;28;47049;-39
2024/01/30 03:53:05;;;;;;;;;16.33;15.00;;;;;10.91;82.43;102368.22;4994751;28;45407;-38
2024/01/30 03:55:31;;;;;;;;;16.67;15.67;;;;;10.91;83.59;102366.44;4994841;28;45382;-39
2024/01/30 03:57:56;;;;;;;;;19.67;16.00;;;;;10.89;83.53;102365.69;4994949;28;45397;-40
2024/01/30 04:00:21;;;;;;;;;17.00;17.00;;;;;10.82;84.05;102350.25;5009763;28;46251;-40
2024/01/30 04:02:47;;;;;;;;;21.00;16.67;;;;;10.87;83.71;102356.09;4994572;28;45392;-40
2024/01/30 04:05:12;;;;;;;;;20.00;17.00;;;;;10.81;83.74;102341.41;4994835;28;45700;-40
2024/01/30 04:07:37;;;;;;;;;20.00;16.00;;;;;10.83;83.28;102347.50;5009753;28;45478;-40
2024/01/30 04:10:05;;;;;;;;;24.33;17.00;;;;;10.79;83.70;102363.78;4994293;28;46150;-39
2024/01/30 04:12:31;;;;;;;;;15.00;14.00;;;;;10.76;84.03;102362.19;4994607;28;45431;-38
2024/01/30 04:14:56;;;;;;;;;20.00;15.67;;;;;10.76;84.47;102361.34;4994387;28;45247;-40
2024/01/30 04:17:21;;;;;;;;;20.00;15.50;;;;;10.69;84.97;102351.13;4994796;28;45446;-40
2024/01/30 04:19:47;;;;;;;;;17.33;14.00;;;;;10.66;84.72;102348.69;4994184;28;45417;-38
2024/01/30 04:22:12;;;;;;;;;17.00;14.33;;;;;10.72;85.16;102350.06;4994356;28;45329;-39
2024/01/30 04:24:37;;;;;;;;;19.33;17.33;;;;;10.72;85.06;102352.72;4994412;28;45299;-40
2024/01/30 04:27:03;;;;;;;;;17.33;12.67;;;;;10.67;85.04;102345.06;4994755;28;45355;-39
2024/01/30 04:29:28;;;;;;;;;23.67;16.67;;;;;10.76;84.45;102353.38;4994155;28;46803;-40
2024/01/30 04:31:54;;;;;;;;;15.33;13.67;;;;;10.71;84.80;102349.22;4994189;28;45369;-40
2024/01/30 04:34:19;;;;;;;;;22.67;13.00;;;;;10.68;84.98;102344.09;4994288;28;45165;-38
2024/01/30 04:36:47;;;;;;;;;17.67;16.00;;;;;10.76;85.35;102354.22;4994474;28;45390;-40
2024/01/30 04:39:13;;;;;;;;;20.33;16.00;;;;;10.79;84.63;102348.69;4994207;28;45646;-40
2024/01/30 04:41:38;;;;;;;;;17.00;16.67;;;;;10.81;84.45;102359.22;4994171;28;45349;-40
2024/01/30 04:44:03;;;;;;;;;14.67;14.33;;;;;10.83;84.28;102357.28;4993975;28;45346;-39
2024/01/30 04:46:29;;;;;;;;;18.00;16.67;;;;;10.79;85.37;102356.66;4994342;28;45445;-38
2024/01/30 04:48:54;;;;;;;;;26.00;14.67;;;;;10.83;84.70;102349.28;4993913;28;46036;-40
2024/01/30 04:51:19;;;;;;;;;13.00;13.00;;;;;10.82;84.59;102355.56;4993499;28;45338;-40
2024/01/30 04:53:45;;;;;;;;;17.33;17.33;;;;;10.84;85.14;102356.34;4994023;28;45289;-40
2024/01/30 04:56:10;;;;;;;;;23.00;17.00;;;;;10.80;84.72;102350.38;4993684;28;45417;-39
2024/01/30 04:58:36;;;;;;;;;20.67;16.00;;;;;10.76;84.61;102350.69;4993644;28;45960;-39
2024/01/30 05:01:02;;;;;;;;;21.33;18.00;;;;;10.76;84.35;102342.72;4993407;28;45413;-40
2024/01/30 05:03:27;;;;;;;;;23.67;20.67;;;;;10.80;84.69;102357.50;4993784;28;45198;-40
2024/01/30 05:05:52;;;;;;;;;27.00;17.67;;;;;10.88;85.38;102371.13;4993558;28;45344;-39
2024/01/30 05:08:18;;;;;;;;;26.67;18.33;;;;;10.88;84.62;102371.97;4993444;28;47564;-40
2024/01/30 05:10:43;;;;;;;;;21.67;19.33;;;;;10.88;85.66;102371.97;4992118;28;45581;-40
2024/01/30 05:13:08;;;;;;;;;23.33;19.67;;;;;10.90;84.49;102369.19;4993607;28;45358;-40
2024/01/30 05:15:34;;;;;;;;;22.00;19.33;;;;;10.86;85.19;102373.03;4993971;28;45373;-38
2024/01/30 05:17:59;;;;;;;;;22.33;19.33;;;;;10.90;85.29;102370.03;4994012;27;45440;-40
2024/01/30 05:20:27;;;;;;;;;27.33;20.67;;;;;10.91;85.54;102378.88;4996067;28;47165;-40
2024/01/30 05:22:53;;;;;;;;;26.00;21.00;;;;;10.88;85.61;102368.47;4996497;28;45359;-39
2024/01/30 05:25:18;;;;;;;;;28.33;18.33;;;;;10.91;84.89;102378.88;4996506;28;45336;-39
2024/01/30 05:27:44;;;;;;;;;21.33;18.67;;;;;10.90;85.54;102378.03;4996207;28;45601;-38
2024/01/30 05:30:10;;;;;;;;;26.67;18.00;;;;;10.89;85.59;102388.81;4996204;28;45402;-40
2024/01/30 05:32:35;;;;;;;;;26.00;18.00;;;;;10.88;85.66;102392.44;4995153;28;45251;-39
2024/01/30 05:35:01;;;;;;;;;20.00;19.00;;;;;10.85;85.68;102389.97;4996339;28;45409;-39
2024/01/30 05:37:26;;;;;;;;;14.67;13.67;;;;;10.91;85.73;102394.84;4996244;28;46210;-39
2024/01/30 05:39:51;;;;;;;;;17.67;16.33;;;;;10.92;85.88;102402.75;4996097;28;45316;-39
2024/01/30 05:42:17;;;;;;;;;19.67;15.33;;;;;10.94;85.98;102397.31;4996289;28;45331;-44
2024/01/30 05:44:42;;;;;;;;;21.00;13.00;;;;;10.97;85.70;102413.94;4996511;28;45367;-39
2024/01/30 05:47:08;;;;;;;;;17.00;16.67;;;;;10.98;85.98;102412.97;4996088;28;45331;-39
2024/01/30 05:49:34;;;;;;;;;21.67;14.67;;;;;10.99;86.42;102411.13;4996088;28;45280;-39
2024/01/30 05:52:00;;;;;;;;;18.33;16.00;;;;;10.96;86.19;102406.91;4996126;28;45455;-39
2024/01/30 05:54:25;;;;;;;;;19.00;13.33;;;;;11.03;85.83;102420.63;4996243;28;45477;-39
2024/01/30 05:56:51;;;;;;;;;25.33;14.00;;;;;11.01;86.11;102422.56;4995971;28;45918;-40
2024/01/30 05:59:16;;;;;;;;;11.00;11.00;;;;;11.06;86.36;102425.72;4995923;28;45348;-40
2024/01/30 06:01:48;;;;;;;;;22.33;17.00;;;;;11.01;86.42;102411.91;4996244;28;45442;-40
2024/01/30 06:04:14;;;;;;;;;14.67;13.00;;;;;11.12;86.30;102427.09;4996571;28;45319;-40
2024/01/30 06:06:40;;;;;;;;;17.00;14.33;;;;;11.12;85.95;102425.28;4995490;28;46482;-40
2024/01/30 06:09:08;;;;;;;;;13.67;13.67;;;;;11.15;85.83;102430.41;4995934;28;45337;-39
2024/01/30 06:11:34;;;;;;;;;19.67;15.67;;;;;11.19;85.94;102434.56;4996042;28;45393;-39
2024/01/30 06:13:59;;;;;;;;;20.33;14.67;;;;;11.19;85.15;102429.22;4996024;28;45359;-37
2024/01/30 06:16:29;;;;;;;;;19.67;14.00;;;;;11.24;86.10;102437.72;4995863;28;46098;-39
2024/01/30 06:18:54;;;;;;;;;16.33;11.33;;;;;11.24;86.22;102435.06;4995860;28;45374;-39
2024/01/30 06:21:20;;;;;;;;;7.00;4.00;;;;;11.23;85.87;102436.03;4995666;28;45440;-40
2024/01/30 06:23:45;;;;;;;;;18.67;12.67;;;;;11.32;85.94;102442.50;4996168;28;45326;-39
2024/01/30 06:26:11;;;;;;;;;13.33;12.00;;;;;11.34;85.71;102442.44;4995351;28;46194;-44
2024/01/30 06:28:36;;;;;;;;;16.00;13.67;;;;;11.37;85.70;102447.50;4995547;28;45340;-39
2024/01/30 06:31:02;;;;;;;;;12.00;12.00;;;;;11.39;85.87;102449.13;4994794;28;45448;-40
2024/01/30 06:33:27;;;;;;;;;18.67;18.67;;;;;11.42;85.59;102456.06;4995774;28;45319;-39
2024/01/30 06:35:52;;;;;;;;;18.67;14.33;;;;;11.44;85.80;102454.13;4995446;28;45495;-39
2024/01/30 06:38:17;;;;;;;;;15.33;14.00;;;;;11.45;85.92;102451.31;4995605;28;45409;-40
2024/01/30 06:40:43;;;;;;;;;11.33;9.67;;;;;11.47;85.97;102448.56;4995900;28;45813;-39
2024/01/30 06:43:08;;;;;;;;;17.67;14.33;;;;;11.48;85.79;102459.09;4995925;28;45351;-39
2024/01/30 06:45:34;;;;;;;;;26.67;19.67;;;;;11.48;85.48;102458.25;4995290;28;46172;-39
2024/01/30 06:48:00;;;;;;;;;18.00;16.33;;;;;11.51;85.93;102449.22;4995333;28;45475;-39
2024/01/30 06:50:25;;;;;;;;;14.67;13.67;;;;;11.51;85.90;102458.06;4995353;28;45358;-39
2024/01/30 06:52:51;;;;;;;;;10.00;7.00;;;;;11.53;85.61;102466.78;4995620;28;45524;-39
2024/01/30 06:55:16;;;;;;;;;17.00;12.33;;;;;11.56;85.46;102458.56;4993951;28;47196;-39
2024/01/30 06:57:42;;;;;;;;;18.00;16.67;;;;;11.59;85.26;102462.84;4995438;28;45437;-39
2024/01/30 07:00:07;;;;;;;;;18.00;13.33;;;;;11.56;85.08;102455.91;4995388;28;45376;-40
2024/01/30 07:02:33;;;;;;;;;17.33;12.67;;;;;11.62;85.62;102468.75;4995525;28;45413;-39
2024/01/30 07:04:58;;;;;;;;;16.67;14.00;;;;;11.67;85.15;102474.63;4994016;28;47466;-40
2024/01/30 07:07:24;;;;;;;;;17.00;14.33;;;;;11.70;85.21;102473.53;4995068;28;45381;-40
2024/01/30 07:09:52;;;;;;;;;15.00;13.00;;;;;11.74;85.49;102485.69;4995189;28;45331;-39
2024/01/30 07:12:17;;;;;;;;;17.67;13.00;;;;;11.78;84.41;102486.31;4995425;28;45446;-39
2024/01/30 07:14:43;;;;;;;;;16.33;12.00;;;;;11.79;84.60;102485.34;4994949;28;46368;-39
2024/01/30 07:17:08;;;;;;;;;19.67;13.67;;;;;11.83;84.69;102492.19;4994914;28;45372;-38
2024/01/30 07:19:35;;;;;;;;;21.33;19.00;;;;;11.86;84.49;102492.81;4995389;28;45243;-39
2024/01/30 07:22:01;;;;;;;;;18.33;15.33;;;;;11.88;84.23;102506.91;4995143;28;45459;-40
2024/01/30 07:24:26;;;;;;;;;22.00;15.00;;;;;11.91;84.21;102505.81;4994796;28;46170;-37
2024/01/30 07:26:52;;;;;;;;;19.67;18.00;;;;;11.91;83.91;102503.16;4995049;28;45358;-39
2024/01/30 07:29:18;;;;;;;;;25.00;19.33;;;;;11.87;83.87;102502.53;4994965;28;45448;-40
2024/01/30 07:31:43;;;;;;;;;22.00;17.33;;;;;11.90;84.54;102504.97;4978846;28;45573;-39
2024/01/30 07:34:09;;;;;;;;;26.33;13.67;;;;;11.90;84.39;102512.13;4991723;28;47088;-40
2024/01/30 07:36:34;;;;;;;;;15.33;13.33;;;;;11.86;84.18;102500.81;4992283;28;45608;-39
2024/01/30 07:39:00;;;;;;;;;14.00;9.67;;;;;11.90;84.01;102509.47;4991888;28;45392;-40
2024/01/30 07:41:25;;;;;;;;;19.33;14.00;;;;;11.89;83.94;102508.63;4989931;28;45390;-39
2024/01/30 07:43:50;;;;;;;;;20.33;18.00;;;;;11.91;84.27;102512.00;4991472;28;46586;-38
2024/01/30 07:46:16;;;;;;;;;14.67;13.67;;;;;11.89;84.73;102521.94;4994452;28;45343;-39
2024/01/30 07:48:41;;;;;;;;;20.00;14.67;;;;;11.93;84.62;102525.25;4994692;28;45528;-39
2024/01/30 07:51:06;;;;;;;;;26.33;18.33;;;;;11.87;84.34;102515.00;4994421;28;45875;-40
2024/01/30 07:53:32;;;;;;;;;17.33;16.67;;;;;11.95;84.35;102536.63;4993708;28;46808;-40
2024/01/30 07:55:57;;;;;;;;;17.67;14.67;;;;;11.73;84.48;102495.50;4993312;28;45387;-40
2024/01/30 07:58:23;;;;;;;;;17.67;14.33;;;;;11.95;83.73;102532.16;4994357;28;45291;-40
2024/01/30 08:00:49;;;;;;;;;16.33;13.00;;;;;11.96;83.84;102536.50;4994209;28;45527;-39
2024/01/30 08:03:16;;;;;;;;;21.00;14.33;;;;;11.92;84.34;102544.84;4994094;28;46117;-39
2024/01/30 08:05:41;;;;;;;;;18.33;14.00;;;;;11.94;84.01;102548.28;4993969;28;45226;-39
2024/01/30 08:08:07;;;;;;;;;20.67;13.33;;;;;11.93;84.44;102547.44;4993774;28;45500;-40
2024/01/30 08:10:32;;;;;;;;;17.67;16.67;;;;;11.89;84.04;102537.94;4994301;28;45315;-40
2024/01/30 08:12:57;;;;;;;;;19.33;14.33;;;;;11.99;84.30;102551.44;4992625;28;46632;-40
2024/01/30 08:15:23;;;;;;;;;19.00;17.67;;;;;11.99;84.18;102562.13;4993837;28;45211;-41
2024/01/30 08:17:48;;;;;;;;;19.00;15.33;;;;;11.99;84.15;102562.13;4993835;28;45470;-40
2024/01/30 08:20:13;;;;;;;;;20.67;14.00;;;;;11.99;84.17;102557.63;4994656;28;45209;-40
2024/01/30 08:22:40;;;;;;;;;17.67;15.00;;;;;12.01;83.83;102562.88;4993849;28;46123;-39
2024/01/30 08:25:06;;;;;;;;;19.33;15.67;;;;;12.05;83.97;102571.47;4994090;28;45461;-41
2024/01/30 08:27:32;;;;;;;;;17.67;16.33;;;;;12.09;83.89;102576.47;4993993;28;45300;-40
2024/01/30 08:29:57;;;;;;;;;21.00;16.67;;;;;12.06;84.22;102571.41;4994259;28;45389;-40
2024/01/30 08:32:23;;;;;;;;;21.00;18.00;;;;;12.11;83.64;102587.06;4994006;28;45443;-39
2024/01/30 08:34:49;;;;;;;;;17.67;15.00;;;;;12.11;84.00;102579.91;4993671;28;45323;-39
2024/01/30 08:37:16;;;;;;;;;15.33;15.00;;;;;12.13;83.46;102580.63;4994022;28;45364;-37
2024/01/30 08:39:42;;;;;;;;;14.00;13.33;;;;;12.14;83.77;102585.03;4994194;28;45181;-38
2024/01/30 08:42:07;;;;;;;;;20.00;15.67;;;;;12.17;83.71;102589.25;4993467;28;46519;-38
2024/01/30 08:44:33;;;;;;;;;24.00;16.67;;;;;12.18;83.47;102591.84;4993700;28;45330;-38
2024/01/30 08:46:58;;;;;;;;;19.67;17.67;;;;;12.15;83.46;102578.72;4992431;28;45324;-38
2024/01/30 08:49:24;;;;;;;;;27.67;20.33;;;;;12.20;83.88;102595.25;5009005;28;45402;-40
2024/01/30 08:51:50;;;;;;;;;20.00;16.67;;;;;12.18;83.39;102594.50;4993323;28;45501;-40
2024/01/30 08:54:15;;;;;;;;;19.33;19.33;;;;;12.23;83.13;102596.84;4992625;28;45364;-38
2024/01/30 08:56:41;;;;;;;;;16.33;16.33;;;;;12.23;83.24;102608.38;4993853;28;45424;-38
2024/01/30 08:59:06;;;;;;;;;19.67;17.33;;;;;12.22;83.03;102604.00;4993730;28;45564;-40
2024/01/30 09:01:33;;;;;;;;;21.33;17.67;;;;;12.19;82.87;102608.69;4993597;28;46470;-40
2024/01/30 09:03:58;;;;;;;;;27.00;19.67;;;;;12.17;83.27;102603.47;4993419;28;45421;-39
2024/01/30 09:06:26;;;;;;;;;19.00;14.67;;;;;12.18;83.21;102613.19;4993514;28;45900;-39
2024/01/30 09:08:51;;;;;;;;;22.33;18.00;;;;;12.18;83.70;102621.19;4993446;28;45359;-38
2024/01/30 09:11:17;;;;;;;;;18.00;17.00;;;;;12.16;83.66;102623.09;4993252;28;46228;-38
2024/01/30 09:13:43;;;;;;;;;18.00;17.33;;;;;12.17;83.20;102623.94;4993371;28;45532;-39
2024/01/30 09:16:08;;;;;;;;;17.33;14.00;;;;;12.16;83.53;102624.94;4993523;28;45471;-39
2024/01/30 09:18:34;;;;;;;;;16.33;14.67;;;;;12.12;83.41;102616.28;4993410;28;45344;-39
2024/01/30 09:20:59;;;;;;;;;20.33;18.33;;;;;12.11;84.04;102627.06;4989881;28;46458;-39
2024/01/30 09:23:26;;;;;;;;;15.33;14.33;;;;;12.15;83.54;102624.06;4993006;28;46436;-38
2024/01/30 09:25:52;;;;;;;;;20.33;18.33;;;;;12.14;83.37;102633.03;4993268;28;45417;-38
2024/01/30 09:28:17;;;;;;;;;19.67;15.00;;;;;12.14;83.69;102635.72;4993606;28;45486;-38
2024/01/30 09:30:43;;;;;;;;;19.33;17.00;;;;;12.15;84.12;102631.22;4992893;28;46996;-39
2024/01/30 09:33:08;;;;;;;;;20.33;13.33;;;;;12.18;83.66;102639.03;4992848;28;45472;-39
2024/01/30 09:35:33;;;;;;;;;18.67;14.67;;;;;12.21;84.15;102641.44;4993194;28;45301;-38
2024/01/30 09:37:59;;;;;;;;;21.33;18.33;;;;;12.22;84.13;102641.34;4993051;28;45388;-39
2024/01/30 09:40:25;;;;;;;;;17.67;16.00;;;;;12.22;83.06;102638.69;4992797;28;45444;-40
2024/01/30 09:42:51;;;;;;;;;24.00;19.33;;;;;12.19;83.94;102638.06;4992684;28;45436;-40
2024/01/30 09:45:24;;;;;;;;;20.00;17.00;;;;;12.27;83.52;102651.69;4993200;28;45353;-40
2024/01/30 09:47:50;;;;;;;;;24.67;20.00;;;;;12.26;83.79;102655.28;4993079;28;45262;-40
2024/01/30 09:50:16;;;;;;;;;22.33;18.00;;;;;12.22;83.59;102659.19;4992684;28;46340;-40
2024/01/30 09:52:44;;;;;;;;;24.67;19.00;;;;;12.17;84.21;102647.97;4993038;28;45322;-42
2024/01/30 09:55:09;;;;;;;;;23.33;16.67;;;;;12.24;84.12;102666.09;4992528;28;45529;-39
2024/01/30 09:57:35;;;;;;;;;36.00;20.33;;;;;12.26;83.76;102670.47;4992845;28;45394;-39
2024/01/30 10:00:01;;;;;;;;;22.33;18.00;;;;;12.25;83.50;102658.94;4992670;28;46582;-40
2024/01/30 10:02:26;;;;;;;;;22.00;21.33;;;;;12.31;83.70;102665.66;4992459;28;45401;-39
2024/01/30 10:04:52;;;;;;;;;18.33;13.00;;;;;12.30;84.08;102670.13;4993975;28;45338;-40
2024/01/30 10:07:19;;;;;;;;;24.33;20.33;;;;;12.34;83.73;102673.44;4996415;28;46057;-38
2024/01/30 10:09:45;;;;;;;;;24.33;18.67;;;;;12.36;84.04;102668.84;4995245;28;45353;-39
2024/01/30 10:12:11;;;;;;;;;28.67;23.00;;;;;12.41;83.60;102675.53;4995331;28;45433;-40
2024/01/30 10:14:40;;;;;;;;;18.67;13.00;;;;;12.39;83.47;102676.66;4995575;28;45357;-38
2024/01/30 10:17:09;;;;;;;;;21.33;18.00;;;;;12.39;83.87;102685.50;4995786;28;45349;-40
2024/01/30 10:19:35;;;;;;;;;17.33;15.00;;;;;12.40;83.98;102683.69;4993745;28;45433;-41
2024/01/30 10:22:00;;;;;;;;;23.00;18.00;;;;;12.38;83.76;102678.44;4994466;28;45639;-41
2024/01/30 10:24:27;;;;;;;;;21.00;15.00;;;;;12.48;83.66;102692.84;4995401;28;45409;-39
2024/01/30 10:26:53;;;;;;;;;21.00;19.00;;;;;12.50;83.61;102692.72;4995536;28;45488;-38
2024/01/30 10:29:18;;;;;;;;;20.33;18.67;;;;;12.52;83.67;102700.63;4995601;28;47251;-39
2024/01/30 10:31:44;;;;;;;;;25.67;15.67;;;;;12.46;83.19;102686.75;4995473;28;45185;-37
2024/01/30 10:34:09;;;;;;;;;31.67;19.33;;;;;12.53;83.28;102697.00;4995131;28;45290;-39
2024/01/30 10:36:43;;;;;;;;;19.33;16.00;;;;;12.60;83.22;102704.44;4995662;28;45406;-40
2024/01/30 10:39:09;;;;;;;;;23.67;17.33;;;;;12.65;82.90;102704.94;4994828;28;47544;-39
2024/01/30 10:41:44;;;;;;;;;22.33;16.00;;;;;12.68;83.36;102704.72;4995091;28;45428;-39
2024/01/30 10:44:10;;;;;;;;;19.33;13.67;;;;;12.72;82.91;102708.00;4995549;28;45256;-39
2024/01/30 10:46:38;;;;;;;;;27.00;17.00;;;;;12.74;82.76;102706.09;4995249;28;45652;-39
2024/01/30 10:49:04;;;;;;;;;24.00;17.67;;;;;12.74;82.57;102706.09;4994681;28;47413;-37
2024/01/30 10:51:31;;;;;;;;;23.33;17.00;;;;;12.75;82.26;102707.78;4995025;28;45459;-40
2024/01/30 10:53:57;;;;;;;;;29.00;17.33;;;;;12.78;82.97;102706.72;4994837;28;45542;-40
2024/01/30 10:56:23;;;;;;;;;24.00;20.00;;;;;12.81;82.74;102703.81;4995452;28;45307;-40
2024/01/30 10:58:53;;;;;;;;;18.33;16.00;;;;;12.83;82.59;102713.41;4995004;28;45397;-41
2024/01/30 11:01:22;;;;;;;;;28.33;18.00;;;;;12.84;82.16;102706.25;4994859;28;45436;-39
2024/01/30 11:03:50;;;;;;;;;18.00;16.67;;;;;12.87;81.60;102706.88;4995120;28;45343;-39